sensor_id;sensor_type;location;lat;lon;timestamp;P1;durP1;ratioP1;P2;durP2;ratioP2
23280;SDS011;11809;56.390;-3.266;2022-08-16T00:01:19;6.78;;;5.35;;
23280;SDS011;11809;56.390;-3.266;2022-08-16T00:03:50;5.97;;;5.22;;
23280;SDS011;11809;56.390;-3.266;2022-08-16T00:06:20;7.32;;;4.78;;
23280;SDS011;11809;56.390;-3.266;2022-08-16T00:08:48;6.53;;;4.63;;
23280;SDS011;11809;56.390;-3.266;2022-08-16T00:11:17;6.47;;;4.80;;
23280;SDS011;11809;56.390;-3.266;2022-08-16T00:13:46;5.65;;;5.05;;
23280;SDS011;11809;56.390;-3.266;2022-08-16T00:16:24;8.40;;;4.97;;
23280;SDS011;11809;56.390;-3.266;2022-08-16T00:19:18;6.22;;;4.85;;
23280;SDS011;11809;56.390;-3.266;2022-08-16T00:21:48;6.47;;;4.85;;
23280;SDS011;11809;56.390;-3.266;2022-08-16T00:24:17;5.65;;;4.88;;
23280;SDS011;11809;56.390;-3.266;2022-08-16T00:26:58;5.05;;;4.20;;
23280;SDS011;11809;56.390;-3.266;2022-08-16T00:29:26;5.78;;;4.68;;
23280;SDS011;11809;56.390;-3.266;2022-08-16T00:31:55;4.47;;;4.07;;
23280;SDS011;11809;56.390;-3.266;2022-08-16T00:34:31;5.05;;;3.80;;
23280;SDS011;11809;56.390;-3.266;2022-08-16T00:37:17;9.60;;;4.40;;
23280;SDS011;11809;56.390;-3.266;2022-08-16T00:39:46;4.97;;;4.28;;
23280;SDS011;11809;56.390;-3.266;2022-08-16T00:42:27;4.65;;;4.10;;
23280;SDS011;11809;56.390;-3.266;2022-08-16T00:47:50;4.50;;;3.92;;
23280;SDS011;11809;56.390;-3.266;2022-08-16T00:50:19;6.75;;;4.07;;
23280;SDS011;11809;56.390;-3.266;2022-08-16T00:53:03;6.38;;;4.03;;
23280;SDS011;11809;56.390;-3.266;2022-08-16T00:55:33;4.22;;;3.83;;
23280;SDS011;11809;56.390;-3.266;2022-08-16T00:58:03;4.32;;;3.92;;
23280;SDS011;11809;56.390;-3.266;2022-08-16T01:00:51;6.28;;;4.03;;
23280;SDS011;11809;56.390;-3.266;2022-08-16T01:03:20;5.15;;;4.05;;
23280;SDS011;11809;56.390;-3.266;2022-08-16T01:06:00;4.57;;;4.18;;
23280;SDS011;11809;56.390;-3.266;2022-08-16T01:08:50;6.43;;;3.88;;
23280;SDS011;11809;56.390;-3.266;2022-08-16T01:11:20;5.10;;;3.92;;
23280;SDS011;11809;56.390;-3.266;2022-08-16T01:13:50;4.88;;;3.70;;
23280;SDS011;11809;56.390;-3.266;2022-08-16T01:16:22;7.53;;;3.25;;
23280;SDS011;11809;56.390;-3.266;2022-08-16T01:18:58;4.32;;;3.65;;
23280;SDS011;11809;56.390;-3.266;2022-08-16T01:24:54;4.05;;;3.55;;
23280;SDS011;11809;56.390;-3.266;2022-08-16T01:27:31;3.70;;;3.40;;
23280;SDS011;11809;56.390;-3.266;2022-08-16T01:32:46;3.92;;;3.30;;
23280;SDS011;11809;56.390;-3.266;2022-08-16T01:35:39;3.42;;;3.13;;
23280;SDS011;11809;56.390;-3.266;2022-08-16T01:38:28;3.55;;;3.25;;
23280;SDS011;11809;56.390;-3.266;2022-08-16T01:41:02;4.75;;;3.30;;
23280;SDS011;11809;56.390;-3.266;2022-08-16T01:43:30;3.15;;;2.88;;
23280;SDS011;11809;56.390;-3.266;2022-08-16T01:46:00;3.50;;;3.20;;
23280;SDS011;11809;56.390;-3.266;2022-08-16T01:48:53;3.58;;;3.28;;
23280;SDS011;11809;56.390;-3.266;2022-08-16T01:51:23;4.15;;;3.28;;
23280;SDS011;11809;56.390;-3.266;2022-08-16T01:53:53;4.07;;;3.10;;
23280;SDS011;11809;56.390;-3.266;2022-08-16T01:56:21;3.63;;;3.33;;
23280;SDS011;11809;56.390;-3.266;2022-08-16T01:58:51;3.10;;;2.80;;
23280;SDS011;11809;56.390;-3.266;2022-08-16T02:01:20;3.20;;;2.90;;
23280;SDS011;11809;56.390;-3.266;2022-08-16T02:03:51;4.57;;;2.58;;
23280;SDS011;11809;56.390;-3.266;2022-08-16T02:06:24;6.10;;;3.00;;
23280;SDS011;11809;56.390;-3.266;2022-08-16T02:09:04;4.13;;;2.85;;
23280;SDS011;11809;56.390;-3.266;2022-08-16T02:11:38;3.70;;;2.40;;
23280;SDS011;11809;56.390;-3.266;2022-08-16T02:14:18;5.53;;;2.83;;
23280;SDS011;11809;56.390;-3.266;2022-08-16T02:16:52;3.75;;;2.75;;
23280;SDS011;11809;56.390;-3.266;2022-08-16T02:19:25;4.45;;;2.85;;
23280;SDS011;11809;56.390;-3.266;2022-08-16T02:22:16;3.40;;;2.72;;
23280;SDS011;11809;56.390;-3.266;2022-08-16T02:25:03;3.40;;;2.38;;
23280;SDS011;11809;56.390;-3.266;2022-08-16T02:27:35;2.88;;;2.50;;
23280;SDS011;11809;56.390;-3.266;2022-08-16T02:30:04;4.70;;;2.65;;
23280;SDS011;11809;56.390;-3.266;2022-08-16T02:32:33;2.90;;;2.70;;
23280;SDS011;11809;56.390;-3.266;2022-08-16T02:35:17;2.88;;;2.67;;
23280;SDS011;11809;56.390;-3.266;2022-08-16T02:37:49;2.78;;;2.30;;
23280;SDS011;11809;56.390;-3.266;2022-08-16T02:40:22;2.63;;;2.42;;
23280;SDS011;11809;56.390;-3.266;2022-08-16T02:42:50;2.35;;;2.15;;
23280;SDS011;11809;56.390;-3.266;2022-08-16T02:45:20;3.35;;;2.70;;
23280;SDS011;11809;56.390;-3.266;2022-08-16T02:47:53;2.97;;;2.67;;
23280;SDS011;11809;56.390;-3.266;2022-08-16T02:50:40;5.32;;;2.42;;
23280;SDS011;11809;56.390;-3.266;2022-08-16T02:53:28;2.97;;;2.50;;
23280;SDS011;11809;56.390;-3.266;2022-08-16T02:55:55;2.60;;;2.40;;
23280;SDS011;11809;56.390;-3.266;2022-08-16T02:58:22;3.38;;;2.47;;
23280;SDS011;11809;56.390;-3.266;2022-08-16T03:00:50;2.78;;;2.58;;
23280;SDS011;11809;56.390;-3.266;2022-08-16T03:05:49;2.30;;;2.10;;
23280;SDS011;11809;56.390;-3.266;2022-08-16T03:08:19;2.63;;;2.25;;
23280;SDS011;11809;56.390;-3.266;2022-08-16T03:11:07;3.75;;;2.20;;
23280;SDS011;11809;56.390;-3.266;2022-08-16T03:13:46;2.88;;;2.10;;
23280;SDS011;11809;56.390;-3.266;2022-08-16T03:19:03;3.20;;;2.13;;
23280;SDS011;11809;56.390;-3.266;2022-08-16T03:21:31;2.40;;;2.20;;
23280;SDS011;11809;56.390;-3.266;2022-08-16T03:24:04;4.18;;;2.30;;
23280;SDS011;11809;56.390;-3.266;2022-08-16T03:26:53;3.08;;;2.10;;
23280;SDS011;11809;56.390;-3.266;2022-08-16T03:29:24;3.15;;;2.63;;
23280;SDS011;11809;56.390;-3.266;2022-08-16T03:31:56;2.28;;;2.08;;
23280;SDS011;11809;56.390;-3.266;2022-08-16T03:34:24;2.20;;;2.00;;
23280;SDS011;11809;56.390;-3.266;2022-08-16T03:36:53;3.55;;;2.10;;
23280;SDS011;11809;56.390;-3.266;2022-08-16T03:39:21;2.38;;;2.17;;
23280;SDS011;11809;56.390;-3.266;2022-08-16T03:41:48;4.18;;;1.90;;
23280;SDS011;11809;56.390;-3.266;2022-08-16T03:44:25;3.40;;;1.80;;
23280;SDS011;11809;56.390;-3.266;2022-08-16T03:47:13;2.08;;;1.80;;
23280;SDS011;11809;56.390;-3.266;2022-08-16T03:49:45;2.10;;;1.90;;
23280;SDS011;11809;56.390;-3.266;2022-08-16T03:52:18;3.28;;;1.58;;
23280;SDS011;11809;56.390;-3.266;2022-08-16T03:54:49;2.13;;;1.70;;
23280;SDS011;11809;56.390;-3.266;2022-08-16T03:57:23;1.63;;;1.50;;
23280;SDS011;11809;56.390;-3.266;2022-08-16T03:59:57;2.08;;;1.60;;
23280;SDS011;11809;56.390;-3.266;2022-08-16T04:02:25;1.92;;;1.60;;
23280;SDS011;11809;56.390;-3.266;2022-08-16T04:04:57;1.67;;;1.58;;
23280;SDS011;11809;56.390;-3.266;2022-08-16T04:07:24;1.40;;;1.30;;
23280;SDS011;11809;56.390;-3.266;2022-08-16T04:09:51;1.52;;;1.30;;
23280;SDS011;11809;56.390;-3.266;2022-08-16T04:12:18;1.50;;;1.40;;
23280;SDS011;11809;56.390;-3.266;2022-08-16T04:15:05;1.30;;;1.20;;
23280;SDS011;11809;56.390;-3.266;2022-08-16T04:17:35;1.40;;;1.30;;
23280;SDS011;11809;56.390;-3.266;2022-08-16T04:20:03;1.60;;;1.27;;
23280;SDS011;11809;56.390;-3.266;2022-08-16T04:22:53;1.58;;;1.25;;
23280;SDS011;11809;56.390;-3.266;2022-08-16T04:25:21;1.58;;;1.00;;
23280;SDS011;11809;56.390;-3.266;2022-08-16T04:27:48;1.65;;;1.38;;
23280;SDS011;11809;56.390;-3.266;2022-08-16T04:30:21;1.88;;;1.15;;
23280;SDS011;11809;56.390;-3.266;2022-08-16T04:32:59;1.30;;;0.90;;
23280;SDS011;11809;56.390;-3.266;2022-08-16T04:35:29;1.27;;;1.00;;
23280;SDS011;11809;56.390;-3.266;2022-08-16T04:37:59;1.00;;;1.00;;
23280;SDS011;11809;56.390;-3.266;2022-08-16T04:40:36;1.08;;;0.90;;
23280;SDS011;11809;56.390;-3.266;2022-08-16T04:43:03;1.10;;;0.93;;
23280;SDS011;11809;56.390;-3.266;2022-08-16T04:45:30;1.13;;;1.00;;
23280;SDS011;11809;56.390;-3.266;2022-08-16T04:48:02;1.10;;;1.00;;
23280;SDS011;11809;56.390;-3.266;2022-08-16T04:50:29;1.40;;;1.13;;
23280;SDS011;11809;56.390;-3.266;2022-08-16T04:52:57;1.05;;;1.00;;
23280;SDS011;11809;56.390;-3.266;2022-08-16T04:55:25;1.23;;;1.00;;
23280;SDS011;11809;56.390;-3.266;2022-08-16T04:58:03;1.75;;;0.80;;
23280;SDS011;11809;56.390;-3.266;2022-08-16T05:00:50;1.20;;;1.00;;
23280;SDS011;11809;56.390;-3.266;2022-08-16T05:03:17;1.17;;;0.80;;
23280;SDS011;11809;56.390;-3.266;2022-08-16T05:05:45;0.80;;;0.80;;
23280;SDS011;11809;56.390;-3.266;2022-08-16T05:08:25;0.73;;;0.73;;
23280;SDS011;11809;56.390;-3.266;2022-08-16T05:10:59;3.88;;;0.80;;
23280;SDS011;11809;56.390;-3.266;2022-08-16T05:13:34;2.65;;;1.08;;
23280;SDS011;11809;56.390;-3.266;2022-08-16T05:16:10;2.25;;;0.80;;
23280;SDS011;11809;56.390;-3.266;2022-08-16T05:18:50;7.18;;;1.02;;
23280;SDS011;11809;56.390;-3.266;2022-08-16T05:21:18;3.28;;;1.05;;
23280;SDS011;11809;56.390;-3.266;2022-08-16T05:23:50;3.22;;;1.10;;
23280;SDS011;11809;56.390;-3.266;2022-08-16T05:26:26;5.22;;;1.20;;
23280;SDS011;11809;56.390;-3.266;2022-08-16T05:28:55;9.63;;;5.88;;
23280;SDS011;11809;56.390;-3.266;2022-08-16T05:31:23;6.05;;;4.07;;
23280;SDS011;11809;56.390;-3.266;2022-08-16T05:33:55;25.20;;;13.75;;
23280;SDS011;11809;56.390;-3.266;2022-08-16T05:36:24;26.25;;;15.55;;
23280;SDS011;11809;56.390;-3.266;2022-08-16T05:39:05;42.83;;;20.88;;
23280;SDS011;11809;56.390;-3.266;2022-08-16T05:41:35;22.20;;;13.55;;
23280;SDS011;11809;56.390;-3.266;2022-08-16T05:44:12;18.77;;;12.45;;
23280;SDS011;11809;56.390;-3.266;2022-08-16T05:46:57;20.30;;;12.02;;
23280;SDS011;11809;56.390;-3.266;2022-08-16T05:49:28;18.45;;;9.40;;
23280;SDS011;11809;56.390;-3.266;2022-08-16T05:52:05;18.83;;;10.05;;
23280;SDS011;11809;56.390;-3.266;2022-08-16T05:54:39;15.02;;;10.45;;
23280;SDS011;11809;56.390;-3.266;2022-08-16T05:57:13;17.77;;;10.05;;
23280;SDS011;11809;56.390;-3.266;2022-08-16T05:59:42;23.80;;;14.15;;
23280;SDS011;11809;56.390;-3.266;2022-08-16T06:02:09;20.65;;;12.93;;
23280;SDS011;11809;56.390;-3.266;2022-08-16T06:04:36;22.15;;;13.45;;
23280;SDS011;11809;56.390;-3.266;2022-08-16T06:07:10;19.35;;;11.82;;
23280;SDS011;11809;56.390;-3.266;2022-08-16T06:09:51;21.83;;;11.98;;
23280;SDS011;11809;56.390;-3.266;2022-08-16T06:12:20;18.73;;;11.63;;
23280;SDS011;11809;56.390;-3.266;2022-08-16T06:14:54;14.73;;;11.07;;
23280;SDS011;11809;56.390;-3.266;2022-08-16T06:17:25;17.45;;;9.68;;
23280;SDS011;11809;56.390;-3.266;2022-08-16T06:20:07;16.02;;;10.55;;
23280;SDS011;11809;56.390;-3.266;2022-08-16T06:22:38;11.30;;;7.45;;
23280;SDS011;11809;56.390;-3.266;2022-08-16T06:27:40;13.17;;;9.63;;
23280;SDS011;11809;56.390;-3.266;2022-08-16T06:30:22;13.00;;;7.30;;
23280;SDS011;11809;56.390;-3.266;2022-08-16T06:32:54;7.78;;;4.78;;
23280;SDS011;11809;56.390;-3.266;2022-08-16T06:35:21;7.13;;;3.70;;
23280;SDS011;11809;56.390;-3.266;2022-08-16T06:37:49;9.75;;;5.63;;
23280;SDS011;11809;56.390;-3.266;2022-08-16T06:40:19;9.75;;;5.72;;
23280;SDS011;11809;56.390;-3.266;2022-08-16T06:42:58;17.73;;;6.32;;
23280;SDS011;11809;56.390;-3.266;2022-08-16T06:45:27;9.65;;;6.18;;
23280;SDS011;11809;56.390;-3.266;2022-08-16T06:47:55;8.95;;;5.68;;
23280;SDS011;11809;56.390;-3.266;2022-08-16T06:50:23;7.82;;;5.45;;
23280;SDS011;11809;56.390;-3.266;2022-08-16T06:52:55;8.85;;;5.53;;
23280;SDS011;11809;56.390;-3.266;2022-08-16T06:55:34;9.32;;;5.00;;
23280;SDS011;11809;56.390;-3.266;2022-08-16T06:58:03;10.95;;;5.40;;
23280;SDS011;11809;56.390;-3.266;2022-08-16T07:00:46;5.95;;;4.45;;
23280;SDS011;11809;56.390;-3.266;2022-08-16T07:03:14;9.43;;;4.90;;
23280;SDS011;11809;56.390;-3.266;2022-08-16T07:05:57;6.13;;;4.18;;
23280;SDS011;11809;56.390;-3.266;2022-08-16T07:08:25;6.28;;;4.13;;
23280;SDS011;11809;56.390;-3.266;2022-08-16T07:10:53;6.85;;;3.78;;
23280;SDS011;11809;56.390;-3.266;2022-08-16T07:13:21;8.05;;;3.72;;
23280;SDS011;11809;56.390;-3.266;2022-08-16T07:16:10;9.05;;;2.78;;
23280;SDS011;11809;56.390;-3.266;2022-08-16T07:18:42;13.40;;;3.38;;
23280;SDS011;11809;56.390;-3.266;2022-08-16T07:21:27;8.82;;;3.15;;
23280;SDS011;11809;56.390;-3.266;2022-08-16T07:24:11;8.27;;;3.22;;
23280;SDS011;11809;56.390;-3.266;2022-08-16T07:26:57;3.42;;;2.50;;
23280;SDS011;11809;56.390;-3.266;2022-08-16T07:29:26;3.10;;;2.22;;
23280;SDS011;11809;56.390;-3.266;2022-08-16T07:31:57;6.18;;;2.33;;
23280;SDS011;11809;56.390;-3.266;2022-08-16T07:34:26;6.28;;;2.42;;
23280;SDS011;11809;56.390;-3.266;2022-08-16T07:37:05;8.82;;;2.20;;
23280;SDS011;11809;56.390;-3.266;2022-08-16T07:39:36;6.40;;;2.00;;
23280;SDS011;11809;56.390;-3.266;2022-08-16T07:42:09;5.30;;;1.98;;
23280;SDS011;11809;56.390;-3.266;2022-08-16T07:44:54;3.88;;;2.20;;
23280;SDS011;11809;56.390;-3.266;2022-08-16T07:47:23;2.92;;;1.95;;
23280;SDS011;11809;56.390;-3.266;2022-08-16T07:50:00;2.33;;;1.80;;
23280;SDS011;11809;56.390;-3.266;2022-08-16T07:52:30;4.72;;;1.85;;
23280;SDS011;11809;56.390;-3.266;2022-08-16T07:54:58;3.13;;;1.23;;
23280;SDS011;11809;56.390;-3.266;2022-08-16T07:57:25;2.17;;;1.20;;
23280;SDS011;11809;56.390;-3.266;2022-08-16T07:59:53;2.00;;;1.00;;
23280;SDS011;11809;56.390;-3.266;2022-08-16T08:02:22;3.08;;;1.20;;
23280;SDS011;11809;56.390;-3.266;2022-08-16T08:04:53;5.70;;;1.23;;
23280;SDS011;11809;56.390;-3.266;2022-08-16T08:07:23;2.00;;;1.02;;
23280;SDS011;11809;56.390;-3.266;2022-08-16T08:12:21;4.50;;;1.00;;
23280;SDS011;11809;56.390;-3.266;2022-08-16T08:15:01;2.70;;;0.70;;
23280;SDS011;11809;56.390;-3.266;2022-08-16T08:17:35;1.15;;;0.90;;
23280;SDS011;11809;56.390;-3.266;2022-08-16T08:20:11;0.95;;;0.90;;
23280;SDS011;11809;56.390;-3.266;2022-08-16T08:22:52;1.60;;;1.27;;
23280;SDS011;11809;56.390;-3.266;2022-08-16T08:25:27;2.15;;;1.77;;
23280;SDS011;11809;56.390;-3.266;2022-08-16T08:28:15;5.63;;;1.58;;
23280;SDS011;11809;56.390;-3.266;2022-08-16T08:30:45;2.97;;;1.38;;
23280;SDS011;11809;56.390;-3.266;2022-08-16T08:33:27;2.42;;;1.92;;
23280;SDS011;11809;56.390;-3.266;2022-08-16T08:35:58;4.07;;;3.13;;
23280;SDS011;11809;56.390;-3.266;2022-08-16T08:38:30;6.45;;;3.30;;
23280;SDS011;11809;56.390;-3.266;2022-08-16T08:41:10;3.30;;;2.45;;
23280;SDS011;11809;56.390;-3.266;2022-08-16T08:43:38;2.92;;;2.60;;
23280;SDS011;11809;56.390;-3.266;2022-08-16T08:46:07;3.83;;;2.90;;
23280;SDS011;11809;56.390;-3.266;2022-08-16T08:48:46;3.95;;;2.97;;
23280;SDS011;11809;56.390;-3.266;2022-08-16T08:51:25;3.25;;;3.03;;
23280;SDS011;11809;56.390;-3.266;2022-08-16T08:54:00;3.85;;;2.90;;
23280;SDS011;11809;56.390;-3.266;2022-08-16T08:56:32;5.15;;;3.25;;
23280;SDS011;11809;56.390;-3.266;2022-08-16T08:59:02;6.22;;;2.90;;
23280;SDS011;11809;56.390;-3.266;2022-08-16T09:01:45;4.35;;;3.30;;
23280;SDS011;11809;56.390;-3.266;2022-08-16T09:04:23;2.60;;;2.50;;
23280;SDS011;11809;56.390;-3.266;2022-08-16T09:06:52;3.30;;;3.00;;
23280;SDS011;11809;56.390;-3.266;2022-08-16T09:09:20;6.50;;;3.03;;
23280;SDS011;11809;56.390;-3.266;2022-08-16T09:11:48;2.85;;;2.60;;
23280;SDS011;11809;56.390;-3.266;2022-08-16T09:14:32;4.53;;;2.63;;
23280;SDS011;11809;56.390;-3.266;2022-08-16T09:17:00;3.47;;;2.33;;
23280;SDS011;11809;56.390;-3.266;2022-08-16T09:19:39;2.65;;;2.10;;
23280;SDS011;11809;56.390;-3.266;2022-08-16T09:22:07;6.72;;;2.42;;
23280;SDS011;11809;56.390;-3.266;2022-08-16T09:24:45;2.25;;;2.08;;
23280;SDS011;11809;56.390;-3.266;2022-08-16T09:27:19;2.67;;;1.90;;
23280;SDS011;11809;56.390;-3.266;2022-08-16T09:29:51;2.88;;;1.90;;
23280;SDS011;11809;56.390;-3.266;2022-08-16T09:32:26;2.13;;;1.60;;
23280;SDS011;11809;56.390;-3.266;2022-08-16T09:34:57;2.85;;;1.70;;
23280;SDS011;11809;56.390;-3.266;2022-08-16T09:37:29;1.60;;;1.50;;
23280;SDS011;11809;56.390;-3.266;2022-08-16T09:40:02;3.50;;;1.90;;
23280;SDS011;11809;56.390;-3.266;2022-08-16T09:42:51;2.35;;;1.20;;
23280;SDS011;11809;56.390;-3.266;2022-08-16T09:45:31;1.20;;;1.20;;
23280;SDS011;11809;56.390;-3.266;2022-08-16T09:48:05;1.10;;;1.10;;
23280;SDS011;11809;56.390;-3.266;2022-08-16T09:50:34;1.45;;;1.10;;
23280;SDS011;11809;56.390;-3.266;2022-08-16T09:53:07;5.97;;;1.50;;
23280;SDS011;11809;56.390;-3.266;2022-08-16T09:55:41;14.70;;;1.98;;
23280;SDS011;11809;56.390;-3.266;2022-08-16T09:58:14;22.20;;;1.80;;
23280;SDS011;11809;56.390;-3.266;2022-08-16T10:01:02;4.47;;;0.88;;
23280;SDS011;11809;56.390;-3.266;2022-08-16T10:03:30;3.88;;;1.17;;
23280;SDS011;11809;56.390;-3.266;2022-08-16T10:05:57;3.22;;;0.90;;
23280;SDS011;11809;56.390;-3.266;2022-08-16T10:08:24;2.25;;;0.90;;
23280;SDS011;11809;56.390;-3.266;2022-08-16T10:10:52;1.27;;;0.77;;
23280;SDS011;11809;56.390;-3.266;2022-08-16T10:13:38;8.52;;;1.00;;
23280;SDS011;11809;56.390;-3.266;2022-08-16T10:16:07;2.65;;;0.77;;
23280;SDS011;11809;56.390;-3.266;2022-08-16T10:18:35;5.35;;;0.88;;
23280;SDS011;11809;56.390;-3.266;2022-08-16T10:21:23;3.67;;;0.70;;
23280;SDS011;11809;56.390;-3.266;2022-08-16T10:23:54;1.70;;;0.55;;
23280;SDS011;11809;56.390;-3.266;2022-08-16T10:26:22;2.30;;;0.70;;
23280;SDS011;11809;56.390;-3.266;2022-08-16T10:29:10;2.65;;;0.50;;
23280;SDS011;11809;56.390;-3.266;2022-08-16T10:31:45;3.17;;;0.60;;
23280;SDS011;11809;56.390;-3.266;2022-08-16T10:34:19;2.05;;;0.50;;
23280;SDS011;11809;56.390;-3.266;2022-08-16T10:36:58;2.45;;;0.40;;
23280;SDS011;11809;56.390;-3.266;2022-08-16T10:39:27;1.48;;;0.40;;
23280;SDS011;11809;56.390;-3.266;2022-08-16T10:42:07;1.40;;;0.30;;
23280;SDS011;11809;56.390;-3.266;2022-08-16T10:44:38;2.33;;;0.52;;
23280;SDS011;11809;56.390;-3.266;2022-08-16T10:47:07;2.05;;;0.40;;
23280;SDS011;11809;56.390;-3.266;2022-08-16T10:49:37;1.83;;;0.50;;
23280;SDS011;11809;56.390;-3.266;2022-08-16T10:52:06;0.93;;;0.40;;
23280;SDS011;11809;56.390;-3.266;2022-08-16T10:54:44;1.75;;;0.40;;
23280;SDS011;11809;56.390;-3.266;2022-08-16T10:57:31;0.82;;;0.30;;
23280;SDS011;11809;56.390;-3.266;2022-08-16T11:00:00;0.45;;;0.43;;
23280;SDS011;11809;56.390;-3.266;2022-08-16T11:02:30;2.63;;;0.40;;
23280;SDS011;11809;56.390;-3.266;2022-08-16T11:05:17;2.42;;;0.40;;
23280;SDS011;11809;56.390;-3.266;2022-08-16T11:07:46;2.58;;;0.40;;
23280;SDS011;11809;56.390;-3.266;2022-08-16T11:10:40;0.52;;;0.30;;
23280;SDS011;11809;56.390;-3.266;2022-08-16T11:13:33;0.47;;;0.32;;
23280;SDS011;11809;56.390;-3.266;2022-08-16T11:16:20;3.22;;;0.40;;
23280;SDS011;11809;56.390;-3.266;2022-08-16T11:18:52;0.38;;;0.20;;
23280;SDS011;11809;56.390;-3.266;2022-08-16T11:21:37;2.58;;;0.20;;
23280;SDS011;11809;56.390;-3.266;2022-08-16T11:24:25;0.45;;;0.20;;
23280;SDS011;11809;56.390;-3.266;2022-08-16T11:27:09;0.57;;;0.20;;
23280;SDS011;11809;56.390;-3.266;2022-08-16T11:29:47;1.90;;;0.30;;
23280;SDS011;11809;56.390;-3.266;2022-08-16T11:32:22;2.30;;;0.30;;
23280;SDS011;11809;56.390;-3.266;2022-08-16T11:34:57;0.28;;;0.25;;
23280;SDS011;11809;56.390;-3.266;2022-08-16T11:37:41;0.10;;;0.10;;
23280;SDS011;11809;56.390;-3.266;2022-08-16T11:40:35;0.90;;;0.20;;
23280;SDS011;11809;56.390;-3.266;2022-08-16T11:43:10;0.50;;;0.20;;
23280;SDS011;11809;56.390;-3.266;2022-08-16T11:45:42;0.20;;;0.20;;
23280;SDS011;11809;56.390;-3.266;2022-08-16T11:48:19;0.28;;;0.13;;
23280;SDS011;11809;56.390;-3.266;2022-08-16T11:50:47;1.15;;;0.20;;
23280;SDS011;11809;56.390;-3.266;2022-08-16T11:53:14;1.38;;;0.38;;
23280;SDS011;11809;56.390;-3.266;2022-08-16T11:55:42;0.17;;;0.10;;
23280;SDS011;11809;56.390;-3.266;2022-08-16T11:58:10;1.60;;;0.30;;
23280;SDS011;11809;56.390;-3.266;2022-08-16T12:00:41;0.10;;;0.10;;
23280;SDS011;11809;56.390;-3.266;2022-08-16T12:03:17;0.93;;;0.10;;
23280;SDS011;11809;56.390;-3.266;2022-08-16T12:05:57;0.40;;;0.10;;
23280;SDS011;11809;56.390;-3.266;2022-08-16T12:08:28;0.98;;;0.20;;
23280;SDS011;11809;56.390;-3.266;2022-08-16T12:10:56;0.55;;;0.20;;
23280;SDS011;11809;56.390;-3.266;2022-08-16T12:15:55;3.05;;;0.30;;
23280;SDS011;11809;56.390;-3.266;2022-08-16T12:18:22;0.60;;;0.20;;
23280;SDS011;11809;56.390;-3.266;2022-08-16T12:20:50;4.00;;;0.20;;
23280;SDS011;11809;56.390;-3.266;2022-08-16T12:23:20;5.57;;;0.47;;
23280;SDS011;11809;56.390;-3.266;2022-08-16T12:25:47;0.75;;;0.10;;
23280;SDS011;11809;56.390;-3.266;2022-08-16T12:28:16;0.20;;;0.20;;
23280;SDS011;11809;56.390;-3.266;2022-08-16T12:31:02;1.77;;;0.20;;
23280;SDS011;11809;56.390;-3.266;2022-08-16T12:33:30;0.45;;;0.20;;
23280;SDS011;11809;56.390;-3.266;2022-08-16T12:36:09;1.27;;;0.17;;
23280;SDS011;11809;56.390;-3.266;2022-08-16T12:38:38;0.20;;;0.20;;
23280;SDS011;11809;56.390;-3.266;2022-08-16T12:41:13;0.30;;;0.20;;
23280;SDS011;11809;56.390;-3.266;2022-08-16T12:43:50;0.63;;;0.20;;
23280;SDS011;11809;56.390;-3.266;2022-08-16T12:46:22;0.38;;;0.20;;
23280;SDS011;11809;56.390;-3.266;2022-08-16T12:48:49;0.93;;;0.30;;
23280;SDS011;11809;56.390;-3.266;2022-08-16T12:51:28;1.02;;;0.20;;
23280;SDS011;11809;56.390;-3.266;2022-08-16T12:54:19;3.42;;;0.35;;
23280;SDS011;11809;56.390;-3.266;2022-08-16T12:56:46;4.28;;;0.30;;
23280;SDS011;11809;56.390;-3.266;2022-08-16T12:59:16;1.88;;;0.35;;
23280;SDS011;11809;56.390;-3.266;2022-08-16T13:01:45;6.55;;;0.45;;
23280;SDS011;11809;56.390;-3.266;2022-08-16T13:04:20;0.50;;;0.10;;
23280;SDS011;11809;56.390;-3.266;2022-08-16T13:06:50;2.50;;;0.15;;
23280;SDS011;11809;56.390;-3.266;2022-08-16T13:09:18;1.30;;;0.25;;
23280;SDS011;11809;56.390;-3.266;2022-08-16T13:11:54;3.35;;;0.10;;
23280;SDS011;11809;56.390;-3.266;2022-08-16T13:14:39;0.93;;;0.20;;
23280;SDS011;11809;56.390;-3.266;2022-08-16T13:17:10;3.97;;;0.20;;
23280;SDS011;11809;56.390;-3.266;2022-08-16T13:19:45;3.15;;;0.30;;
23280;SDS011;11809;56.390;-3.266;2022-08-16T13:22:33;0.10;;;0.10;;
23280;SDS011;11809;56.390;-3.266;2022-08-16T13:25:03;1.38;;;0.10;;
23280;SDS011;11809;56.390;-3.266;2022-08-16T13:27:34;0.82;;;0.15;;
23280;SDS011;11809;56.390;-3.266;2022-08-16T13:30:22;1.45;;;0.10;;
23280;SDS011;11809;56.390;-3.266;2022-08-16T13:33:06;2.17;;;0.17;;
23280;SDS011;11809;56.390;-3.266;2022-08-16T13:35:42;0.10;;;0.10;;
23280;SDS011;11809;56.390;-3.266;2022-08-16T13:38:23;3.17;;;0.55;;
23280;SDS011;11809;56.390;-3.266;2022-08-16T13:40:53;6.03;;;0.30;;
23280;SDS011;11809;56.390;-3.266;2022-08-16T13:43:35;1.45;;;0.15;;
23280;SDS011;11809;56.390;-3.266;2022-08-16T13:46:04;1.42;;;0.15;;
23280;SDS011;11809;56.390;-3.266;2022-08-16T13:48:32;0.20;;;0.20;;
23280;SDS011;11809;56.390;-3.266;2022-08-16T13:51:10;0.10;;;0.10;;
23280;SDS011;11809;56.390;-3.266;2022-08-16T13:53:44;4.32;;;0.22;;
23280;SDS011;11809;56.390;-3.266;2022-08-16T13:56:25;0.20;;;0.20;;
23280;SDS011;11809;56.390;-3.266;2022-08-16T13:59:09;2.97;;;0.20;;
23280;SDS011;11809;56.390;-3.266;2022-08-16T14:01:46;0.68;;;0.20;;
23280;SDS011;11809;56.390;-3.266;2022-08-16T14:04:25;2.13;;;0.20;;
23280;SDS011;11809;56.390;-3.266;2022-08-16T14:06:55;1.17;;;0.20;;
23280;SDS011;11809;56.390;-3.266;2022-08-16T14:09:23;0.50;;;0.20;;
23280;SDS011;11809;56.390;-3.266;2022-08-16T14:11:52;4.65;;;0.32;;
23280;SDS011;11809;56.390;-3.266;2022-08-16T14:14:23;0.22;;;0.20;;
23280;SDS011;11809;56.390;-3.266;2022-08-16T14:16:55;3.47;;;0.30;;
23280;SDS011;11809;56.390;-3.266;2022-08-16T14:19:27;5.00;;;0.40;;
23280;SDS011;11809;56.390;-3.266;2022-08-16T14:24:47;6.30;;;0.40;;
23280;SDS011;11809;56.390;-3.266;2022-08-16T14:27:19;9.68;;;0.52;;
23280;SDS011;11809;56.390;-3.266;2022-08-16T14:29:49;2.38;;;0.20;;
23280;SDS011;11809;56.390;-3.266;2022-08-16T14:32:17;0.35;;;0.15;;
23280;SDS011;11809;56.390;-3.266;2022-08-16T14:35:00;12.82;;;0.98;;
23280;SDS011;11809;56.390;-3.266;2022-08-16T14:37:33;3.80;;;0.30;;
23280;SDS011;11809;56.390;-3.266;2022-08-16T14:40:01;2.00;;;0.20;;
23280;SDS011;11809;56.390;-3.266;2022-08-16T14:42:30;1.30;;;0.50;;
23280;SDS011;11809;56.390;-3.266;2022-08-16T14:45:02;5.97;;;0.52;;
23280;SDS011;11809;56.390;-3.266;2022-08-16T14:47:34;6.05;;;0.52;;
23280;SDS011;11809;56.390;-3.266;2022-08-16T14:50:05;0.32;;;0.20;;
23280;SDS011;11809;56.390;-3.266;2022-08-16T14:52:38;10.32;;;0.63;;
23280;SDS011;11809;56.390;-3.266;2022-08-16T14:55:22;0.20;;;0.20;;
23280;SDS011;11809;56.390;-3.266;2022-08-16T14:57:52;1.92;;;0.20;;
23280;SDS011;11809;56.390;-3.266;2022-08-16T15:00:20;3.63;;;0.30;;
23280;SDS011;11809;56.390;-3.266;2022-08-16T15:03:00;2.45;;;0.30;;
23280;SDS011;11809;56.390;-3.266;2022-08-16T15:05:31;1.45;;;0.20;;
23280;SDS011;11809;56.390;-3.266;2022-08-16T15:07:58;0.22;;;0.22;;
23280;SDS011;11809;56.390;-3.266;2022-08-16T15:10:26;0.77;;;0.20;;
23280;SDS011;11809;56.390;-3.266;2022-08-16T15:12:57;0.40;;;0.28;;
23280;SDS011;11809;56.390;-3.266;2022-08-16T15:15:27;2.55;;;0.40;;
23280;SDS011;11809;56.390;-3.266;2022-08-16T15:17:57;1.83;;;0.30;;
23280;SDS011;11809;56.390;-3.266;2022-08-16T15:20:28;1.73;;;0.63;;
23280;SDS011;11809;56.390;-3.266;2022-08-16T15:22:57;1.23;;;0.30;;
23280;SDS011;11809;56.390;-3.266;2022-08-16T15:25:32;0.38;;;0.30;;
23280;SDS011;11809;56.390;-3.266;2022-08-16T15:28:07;1.27;;;0.40;;
23280;SDS011;11809;56.390;-3.266;2022-08-16T15:30:56;1.55;;;0.63;;
23280;SDS011;11809;56.390;-3.266;2022-08-16T15:33:29;2.20;;;0.40;;
23280;SDS011;11809;56.390;-3.266;2022-08-16T15:35:57;0.90;;;0.30;;
23280;SDS011;11809;56.390;-3.266;2022-08-16T15:38:27;2.03;;;0.40;;